Time;durP1;ratioP1;P1;durP2;ratioP2;P2;SDS_P1;SDS_P2;PMS_P1;PMS_P2;Temp;Humidity;BMP_temperature;BMP_pressure;BME280_temperature;BME280_humidity;BME280_pressure;Samples;Min_cycle;Max_cycle;Signal;HPM_P1;HPM_P2
2022/03/07 00:02:12;;;;;;;19.10;12.93;;;-0.20;76.10;;;;;;6225656;23;20426;-84
2022/03/07 00:04:59;;;;;;;20.48;13.30;;;-0.20;76.40;;;;;;6222729;23;20029;-85
2022/03/07 00:07:47;;;;;;;18.38;13.60;;;-0.20;76.50;;;;;;6192543;23;20036;-85
2022/03/07 00:10:37;;;;;;;19.58;13.05;;;-0.20;76.20;;;;;;6213690;23;20424;-84
2022/03/07 00:13:24;;;;;;;20.42;13.65;;;-0.20;76.50;;;;;;6214776;23;20044;-85
2022/03/07 00:16:15;;;;;;;19.70;13.27;;;-0.20;77.10;;;;;;6191823;23;20029;-84
2022/03/07 00:19:02;;;;;;;22.33;13.65;;;-0.20;77.10;;;;;;6173827;23;20108;-85
2022/03/07 00:21:49;;;;;;;23.17;14.40;;;-0.30;77.40;;;;;;6192335;23;20090;-84
2022/03/07 00:24:37;;;;;;;20.77;14.32;;;-0.20;77.10;;;;;;6215194;23;20365;-85
2022/03/07 00:27:25;;;;;;;20.10;14.27;;;-0.20;77.60;;;;;;6215437;23;20115;-84
2022/03/07 00:30:15;;;;;;;21.13;14.27;;;-0.20;78.30;;;;;;6214839;23;20027;-85
2022/03/07 00:33:02;;;;;;;21.35;13.32;;;-0.30;79.00;;;;;;6213411;23;20029;-85
2022/03/07 00:35:50;;;;;;;21.40;14.30;;;-0.30;79.70;;;;;;6213971;23;20028;-85
2022/03/07 00:38:37;;;;;;;19.58;13.00;;;-0.40;80.90;;;;;;6218502;23;20028;-85
2022/03/07 00:41:33;;;;;;;20.85;14.25;;;-0.40;81.20;;;;;;6214154;23;20039;-85
2022/03/07 00:44:20;;;;;;;19.30;13.65;;;-0.40;81.00;;;;;;6214311;23;20435;-84
2022/03/07 00:47:07;;;;;;;23.42;13.75;;;-0.40;81.10;;;;;;6215993;23;20028;-84
2022/03/07 00:49:56;;;;;;;20.52;14.10;;;-0.40;82.40;;;;;;6195150;23;20028;-84
2022/03/07 00:52:43;;;;;;;22.33;14.02;;;-0.50;81.90;;;;;;6192130;23;20043;-85
2022/03/07 00:55:31;;;;;;;20.20;13.93;;;-0.50;83.10;;;;;;6212944;23;20131;-84
2022/03/07 00:58:21;;;;;;;21.60;13.43;;;-0.50;83.40;;;;;;6215046;23;20376;-84
2022/03/07 01:01:08;;;;;;;19.73;12.75;;;-0.50;84.00;;;;;;6193693;23;20099;-84
2022/03/07 01:03:56;;;;;;;22.58;14.70;;;-0.50;85.40;;;;;;6214256;23;20028;-85
2022/03/07 01:06:46;;;;;;;21.60;13.75;;;-0.50;85.80;;;;;;6214171;23;20060;-86
2022/03/07 01:09:38;;;;;;;21.98;13.52;;;-0.50;86.10;;;;;;6214231;23;20777;-85
2022/03/07 01:12:25;;;;;;;23.42;14.63;;;-0.60;87.10;;;;;;6193312;23;20025;-84
2022/03/07 01:15:14;;;;;;;23.27;14.82;;;-0.60;88.50;;;;;;6214546;23;20039;-84
2022/03/07 01:18:04;;;;;;;23.42;14.77;;;-0.70;89.40;;;;;;6214268;23;20466;-85
2022/03/07 01:20:54;;;;;;;20.55;13.95;;;-0.70;88.60;;;;;;6217555;23;20029;-85
2022/03/07 01:23:43;;;;;;;21.50;14.70;;;-0.70;84.30;;;;;;6193390;23;20127;-85
2022/03/07 01:26:31;;;;;;;20.25;14.32;;;-0.70;99.90;;;;;;6193371;23;20025;-85
2022/03/07 01:29:19;;;;;;;24.75;14.85;;;-0.80;99.90;;;;;;6195900;23;20048;-84
2022/03/07 01:32:06;;;;;;;21.25;14.73;;;-0.70;99.90;;;;;;6215346;23;20029;-84
2022/03/07 01:34:54;;;;;;;24.88;14.25;;;-0.80;99.90;;;;;;6196048;23;20024;-84
2022/03/07 01:37:42;;;;;;;21.30;14.48;;;-0.80;99.90;;;;;;6193796;23;20031;-85
2022/03/07 01:40:32;;;;;;;21.27;14.05;;;-0.80;99.90;;;;;;6193050;23;20032;-85
2022/03/07 01:43:19;;;;;;;22.35;14.63;;;-0.80;99.90;;;;;;6215629;23;20120;-85
2022/03/07 01:46:08;;;;;;;20.85;14.27;;;-0.80;99.90;;;;;;6193980;23;20025;-85
2022/03/07 01:48:56;;;;;;;23.65;12.75;;;-0.90;99.90;;;;;;6214669;23;20103;-84
2022/03/07 01:51:44;;;;;;;21.25;13.15;;;-0.80;99.90;;;;;;6193416;23;20147;-86
2022/03/07 01:54:32;;;;;;;19.75;12.00;;;-0.80;99.90;;;;;;6195489;23;20024;-86
2022/03/07 01:57:19;;;;;;;18.75;12.48;;;-0.90;99.90;;;;;;6194384;23;20086;-85
2022/03/07 02:00:11;;;;;;;19.95;13.70;;;-0.90;99.90;;;;;;6214356;23;20025;-86
2022/03/07 02:02:58;;;;;;;22.00;12.77;;;-1.00;99.90;;;;;;6193850;23;20043;-84
2022/03/07 02:05:47;;;;;;;19.63;13.38;;;-1.10;99.90;;;;;;6215164;23;20107;-85
2022/03/07 02:08:34;;;;;;;18.92;12.40;;;-1.10;99.90;;;;;;6193974;23;20043;-85
2022/03/07 02:11:22;;;;;;;18.98;11.73;;;-1.10;99.90;;;;;;6215355;23;20028;-86
2022/03/07 02:14:14;;;;;;;16.40;11.63;;;-1.10;99.90;;;;;;6193881;23;20040;-85
2022/03/07 02:17:02;;;;;;;13.80;9.52;;;-1.10;99.90;;;;;;6214001;23;20307;-85
2022/03/07 02:19:50;;;;;;;18.85;11.85;;;-1.20;99.90;;;;;;6215219;23;20085;-85
2022/03/07 02:22:37;;;;;;;20.25;12.13;;;-1.20;99.90;;;;;;6214730;23;20028;-83
2022/03/07 02:25:24;;;;;;;19.13;11.55;;;-1.20;99.90;;;;;;6214985;23;20029;-84
2022/03/07 02:28:15;;;;;;;18.50;11.63;;;-1.20;99.90;;;;;;6213979;23;20021;-84
2022/03/07 02:31:02;;;;;;;18.92;12.02;;;-1.30;99.90;;;;;;6192705;23;20412;-84
2022/03/07 02:33:49;;;;;;;15.40;11.10;;;-1.40;99.90;;;;;;6202495;23;20034;-84
2022/03/07 02:36:36;;;;;;;20.63;10.52;;;-1.50;99.90;;;;;;6208504;23;20024;-83
2022/03/07 02:39:26;;;;;;;16.70;10.95;;;-1.50;99.90;;;;;;6222730;23;20043;-84
2022/03/07 02:42:14;;;;;;;16.67;10.75;;;-1.70;99.90;;;;;;6214372;23;20017;-84
2022/03/07 02:45:01;;;;;;;18.55;11.90;;;-1.80;99.90;;;;;;6214410;23;20021;-84
2022/03/07 02:47:49;;;;;;;17.00;11.35;;;-1.90;99.90;;;;;;6214766;23;20039;-86
2022/03/07 02:50:36;;;;;;;14.07;10.82;;;-2.00;99.90;;;;;;6214910;23;20305;-86
2022/03/07 02:53:23;;;;;;;18.85;11.80;;;-2.00;99.90;;;;;;6216826;23;20036;-84
2022/03/07 02:56:11;;;;;;;18.58;11.32;;;-2.10;99.90;;;;;;6194903;23;20043;-84
2022/03/07 02:59:01;;;;;;;17.73;11.27;;;-2.10;1.00;;;;;;6193506;23;20028;-85
2022/03/07 03:01:48;;;;;;;13.55;10.13;;;-2.20;1.00;;;;;;6213992;23;20052;-83
2022/03/07 03:04:36;;;;;;;16.15;11.43;;;-2.30;1.00;;;;;;6215440;23;20024;-84
2022/03/07 03:07:24;;;;;;;16.20;11.43;;;-2.30;1.00;;;;;;6192520;23;20111;-84
2022/03/07 03:10:13;;;;;;;19.73;11.15;;;-2.30;1.00;;;;;;6213656;23;20114;-84
2022/03/07 03:13:02;;;;;;;17.02;10.85;;;-2.40;1.00;;;;;;6190954;23;20020;-84
2022/03/07 03:15:51;;;;;;;17.40;11.60;;;-2.40;1.00;;;;;;6193612;23;20036;-84
2022/03/07 03:18:38;;;;;;;18.15;11.35;;;-2.60;1.00;;;;;;6192678;23;20029;-85
2022/03/07 03:21:28;;;;;;;17.35;11.63;;;-2.60;1.00;;;;;;6213146;23;20024;-83
2022/03/07 03:24:15;;;;;;;18.48;11.77;;;-2.60;1.00;;;;;;6191300;23;20033;-84
2022/03/07 03:27:03;;;;;;;19.55;11.38;;;-2.60;1.00;;;;;;6212050;23;20110;-84
2022/03/07 03:29:50;;;;;;;21.13;11.68;;;-2.60;1.00;;;;;;6214595;23;20392;-85
2022/03/07 03:32:37;;;;;;;17.08;11.52;;;-2.60;1.00;;;;;;6191523;23;20119;-83
2022/03/07 03:35:27;;;;;;;17.65;10.82;;;-2.70;1.00;;;;;;6211581;23;20031;-84
2022/03/07 03:38:17;;;;;;;17.48;11.13;;;-2.80;1.00;;;;;;6213798;23;20032;-84
2022/03/07 03:41:04;;;;;;;19.60;11.85;;;-2.80;1.00;;;;;;6214747;23;20032;-83
2022/03/07 03:43:56;;;;;;;17.40;11.60;;;-2.70;1.00;;;;;;6212309;23;20409;-84
2022/03/07 03:46:43;;;;;;;16.48;11.32;;;-2.70;1.00;;;;;;6212614;23;20028;-84
2022/03/07 03:49:30;;;;;;;18.33;11.48;;;-2.70;1.00;;;;;;6190196;23;20377;-85
2022/03/07 03:52:21;;;;;;;20.50;11.70;;;-2.80;1.00;;;;;;6212151;23;20052;-85
2022/03/07 03:55:10;;;;;;;18.05;12.10;;;-2.80;1.50;;;;;;6192202;23;20104;-85
2022/03/07 03:57:58;;;;;;;19.40;12.43;;;-2.80;1.00;;;;;;6211166;23;20416;-85
2022/03/07 04:00:45;;;;;;;18.23;11.48;;;-2.80;6.00;;;;;;6213251;23;20055;-84
2022/03/07 04:03:32;;;;;;;20.38;12.27;;;-2.90;19.80;;;;;;6213621;23;20336;-84
2022/03/07 04:06:22;;;;;;;20.00;12.05;;;-2.90;13.60;;;;;;6212170;23;20047;-84
2022/03/07 04:09:19;;;;;;;21.23;13.55;;;-2.90;38.50;;;;;;6210924;23;20028;-84
2022/03/07 04:12:09;;;;;;;20.88;11.85;;;-2.90;10.80;;;;;;6216278;23;20226;-84
2022/03/07 04:14:57;;;;;;;18.92;12.60;;;-2.90;1.00;;;;;;6190296;23;20102;-85
2022/03/07 04:17:51;;;;;;;17.65;11.75;;;-3.00;1.00;;;;;;6192341;23;20028;-84
2022/03/07 04:20:38;;;;;;;19.92;11.77;;;-2.90;1.00;;;;;;6212222;23;20033;-85
2022/03/07 04:23:25;;;;;;;20.60;12.63;;;-3.00;25.40;;;;;;6214235;23;20063;-84
2022/03/07 04:26:13;;;;;;;18.40;12.07;;;-3.00;11.90;;;;;;6190539;23;20025;-85
2022/03/07 04:29:03;;;;;;;20.83;12.65;;;-3.00;6.80;;;;;;6190409;23;20056;-84
2022/03/07 04:31:50;;;;;;;20.40;13.02;;;-3.00;1.00;;;;;;6212046;23;20366;-85
2022/03/07 04:34:40;;;;;;;18.02;12.23;;;-3.00;12.30;;;;;;6212194;23;20154;-84
2022/03/07 04:37:27;;;;;;;19.98;12.57;;;-3.10;6.70;;;;;;6191144;23;20343;-85
2022/03/07 04:40:17;;;;;;;20.70;12.65;;;-3.10;27.50;;;;;;6212810;23;20387;-84
2022/03/07 04:43:06;;;;;;;24.05;13.23;;;-3.10;55.60;;;;;;6212917;23;20020;-85
2022/03/07 04:45:55;;;;;;;22.35;12.82;;;-3.20;85.60;;;;;;6214406;23;20032;-84
2022/03/07 04:48:43;;;;;;;21.40;14.38;;;-3.20;66.60;;;;;;6193164;23;20052;-84
2022/03/07 04:51:30;;;;;;;22.02;13.98;;;-3.20;82.10;;;;;;6213336;23;20047;-84
2022/03/07 04:54:18;;;;;;;20.73;13.32;;;-3.10;71.90;;;;;;6214063;23;20024;-84
2022/03/07 04:57:05;;;;;;;21.45;13.68;;;-3.20;99.90;;;;;;6214779;23;20078;-84
2022/03/07 04:59:52;;;;;;;22.83;14.63;;;-3.20;99.90;;;;;;6213687;23;20032;-85
2022/03/07 05:02:40;;;;;;;25.70;14.32;;;-3.20;99.90;;;;;;6194306;23;20029;-83
2022/03/07 05:05:27;;;;;;;26.45;14.48;;;-3.20;99.90;;;;;;6215523;23;20025;-84
2022/03/07 05:08:15;;;;;;;24.90;14.20;;;-3.30;99.90;;;;;;6193498;23;20032;-84
2022/03/07 05:11:05;;;;;;;26.05;14.05;;;-3.20;99.90;;;;;;6213267;23;20096;-84
2022/03/07 05:13:55;;;;;;;25.17;14.63;;;-3.30;99.90;;;;;;6214062;23;20021;-85
2022/03/07 05:16:42;;;;;;;21.00;14.25;;;-3.30;99.90;;;;;;6215289;23;20025;-85
2022/03/07 05:19:29;;;;;;;21.85;14.10;;;-3.40;99.90;;;;;;6215547;23;20130;-85
2022/03/07 05:22:17;;;;;;;21.17;14.63;;;-3.40;99.90;;;;;;6213988;23;20028;-84
2022/03/07 05:25:06;;;;;;;23.83;14.95;;;-3.40;99.90;;;;;;6192511;23;20135;-84
2022/03/07 05:27:53;;;;;;;22.33;14.52;;;-3.30;99.90;;;;;;6213871;23;20100;-83
2022/03/07 05:30:48;;;;;;;24.60;14.55;;;-3.30;99.90;;;;;;6214650;23;20325;-83
2022/03/07 05:33:37;;;;;;;25.58;15.27;;;-3.30;99.90;;;;;;6194985;23;20036;-83
2022/03/07 05:36:27;;;;;;;28.23;16.30;;;-3.30;99.90;;;;;;6215807;23;20135;-84
2022/03/07 05:39:14;;;;;;;24.98;14.57;;;-3.30;99.90;;;;;;6215000;23;20036;-84
2022/03/07 05:42:02;;;;;;;25.08;15.25;;;-3.20;99.90;;;;;;6213360;23;20102;-84
2022/03/07 05:44:52;;;;;;;26.48;15.43;;;-3.30;99.90;;;;;;6212118;23;20036;-84
2022/03/07 05:47:41;;;;;;;24.58;16.23;;;-3.30;99.90;;;;;;6214013;23;20090;-83
2022/03/07 05:50:31;;;;;;;26.27;15.43;;;-3.20;99.90;;;;;;6213724;23;20021;-83
2022/03/07 05:53:21;;;;;;;27.83;15.95;;;-3.20;99.90;;;;;;6214191;23;20021;-83
2022/03/07 05:56:08;;;;;;;25.15;15.35;;;-3.20;99.90;;;;;;6216847;23;20051;-84
2022/03/07 05:58:57;;;;;;;31.77;16.02;;;-3.20;99.90;;;;;;6193071;23;20036;-82
2022/03/07 06:01:45;;;;;;;30.35;16.23;;;-3.20;99.90;;;;;;6214489;23;20036;-83
2022/03/07 06:04:34;;;;;;;27.08;16.35;;;-3.20;99.90;;;;;;6216068;23;20337;-84
2022/03/07 06:07:23;;;;;;;35.55;16.88;;;-3.30;99.90;;;;;;6193941;23;20025;-84
2022/03/07 06:10:11;;;;;;;27.65;16.85;;;-3.30;99.90;;;;;;6214342;23;20284;-83
2022/03/07 06:12:58;;;;;;;25.92;15.57;;;-3.30;1.00;;;;;;6213542;23;20036;-83
2022/03/07 06:15:46;;;;;;;29.45;17.45;;;-3.30;1.00;;;;;;6193883;23;20032;-84
2022/03/07 06:18:34;;;;;;;31.08;18.25;;;-3.30;1.00;;;;;;6214448;23;20040;-83
2022/03/07 06:21:21;;;;;;;30.92;18.15;;;-3.20;1.00;;;;;;6213999;23;20100;-83
2022/03/07 06:24:08;;;;;;;27.80;16.48;;;-3.30;7.50;;;;;;6216827;23;20036;-83
2022/03/07 06:26:57;;;;;;;30.73;17.25;;;-3.20;1.00;;;;;;6212127;23;20020;-84
2022/03/07 06:29:44;;;;;;;31.05;17.50;;;-3.20;1.00;;;;;;6192319;23;20024;-84
2022/03/07 06:32:32;;;;;;;28.13;17.73;;;-3.20;1.00;;;;;;6212997;23;20021;-84
2022/03/07 06:35:19;;;;;;;30.50;18.40;;;-3.20;1.00;;;;;;6171248;23;20052;-84
2022/03/07 06:38:15;;;;;;;27.90;17.15;;;-3.10;15.40;;;;;;6194491;23;20102;-82
2022/03/07 06:41:08;;;;;;;29.98;17.23;;;-3.10;99.90;;;;;;6193538;23;20120;-83
2022/03/07 06:44:00;;;;;;;28.10;16.38;;;-3.00;1.00;;;;;;6191400;23;20056;-84
2022/03/07 06:46:50;;;;;;;25.58;16.13;;;-2.90;1.00;;;;;;6214591;23;20087;-84
2022/03/07 06:49:39;;;;;;;31.80;19.17;;;-2.90;1.00;;;;;;6193694;23;20027;-83
2022/03/07 06:52:29;;;;;;;29.42;16.98;;;-2.90;32.30;;;;;;6214640;23;20294;-84
2022/03/07 06:55:16;;;;;;;29.17;16.52;;;-2.60;1.00;;;;;;6211934;23;20025;-83
2022/03/07 06:58:06;;;;;;;29.45;16.77;;;-2.30;99.90;;;;;;6214420;23;20123;-84
2022/03/07 07:00:56;;;;;;;28.33;17.20;;;-1.90;99.90;;;;;;6215115;23;20036;-84
2022/03/07 07:03:43;;;;;;;30.05;15.73;;;-1.60;99.90;;;;;;6213002;23;20136;-84
2022/03/07 07:06:30;;;;;;;23.83;15.43;;;-1.40;39.60;;;;;;6214625;23;20039;-83
2022/03/07 07:09:19;;;;;;;22.42;14.93;;;-1.30;1.00;;;;;;6213080;23;20025;-84
2022/03/07 07:12:06;;;;;;;25.55;15.85;;;-1.20;1.00;;;;;;6193434;23;20071;-83
2022/03/07 07:14:56;;;;;;;26.63;15.38;;;-1.20;1.00;;;;;;6213928;23;20025;-83
2022/03/07 07:17:43;;;;;;;25.00;16.00;;;-1.20;1.00;;;;;;6214347;23;20083;-84
2022/03/07 07:20:36;;;;;;;22.83;15.00;;;-1.10;1.00;;;;;;6193788;23;20044;-83
2022/03/07 07:23:23;;;;;;;27.27;15.88;;;-1.10;1.00;;;;;;6190753;23;20028;-83
2022/03/07 07:26:15;;;;;;;22.10;13.90;;;-1.00;1.00;;;;;;6212667;23;20391;-84
2022/03/07 07:29:03;;;;;;;24.73;14.45;;;-0.80;1.00;;;;;;6213081;23;20086;-83
2022/03/07 07:31:53;;;;;;;24.80;15.00;;;-0.50;1.00;;;;;;6212465;23;20029;-84
2022/03/07 07:34:43;;;;;;;23.60;13.90;;;-0.30;99.90;;;;;;6213431;23;20040;-83
2022/03/07 07:37:31;;;;;;;24.38;14.25;;;-0.10;99.90;;;;;;6213189;23;20063;-84
2022/03/07 07:40:18;;;;;;;24.35;14.85;;;0.10;99.90;;;;;;6214414;23;20119;-84
2022/03/07 07:43:05;;;;;;;20.48;13.93;;;0.50;99.90;;;;;;6212310;23;20112;-82
2022/03/07 07:45:55;;;;;;;22.23;14.23;;;0.60;99.90;;;;;;6213337;23;20099;-83
2022/03/07 07:48:43;;;;;;;19.65;13.07;;;0.40;99.90;;;;;;6211052;23;20320;-83
2022/03/07 07:51:32;;;;;;;22.27;14.40;;;0.50;99.90;;;;;;6212231;23;20036;-83
2022/03/07 07:54:22;;;;;;;20.15;13.25;;;0.60;99.90;;;;;;6211746;23;20048;-83
2022/03/07 07:57:12;;;;;;;22.70;13.63;;;1.00;99.90;;;;;;6214669;23;20031;-84
2022/03/07 07:59:59;;;;;;;21.40;14.30;;;1.10;99.90;;;;;;6214152;23;20048;-83
2022/03/07 08:03:03;;;;;;;23.25;13.82;;;1.30;99.90;;;;;;6214783;23;20316;-83
2022/03/07 08:05:51;;;;;;;22.33;13.68;;;1.20;99.90;;;;;;6211653;23;20430;-83
2022/03/07 08:08:39;;;;;;;19.60;13.73;;;1.30;99.90;;;;;;6215531;23;20024;-83
2022/03/07 08:11:27;;;;;;;23.50;13.75;;;1.30;99.90;;;;;;6190906;23;20032;-83
2022/03/07 08:14:14;;;;;;;20.48;14.15;;;1.50;99.90;;;;;;6212681;23;20024;-83
2022/03/07 08:17:04;;;;;;;23.02;14.25;;;1.70;99.90;;;;;;6212045;23;20085;-83
2022/03/07 08:19:52;;;;;;;21.02;13.68;;;1.80;99.90;;;;;;6213278;23;20024;-83
2022/03/07 08:22:40;;;;;;;20.95;14.13;;;2.20;99.90;;;;;;6212215;23;20025;-83
2022/03/07 08:25:30;;;;;;;19.65;13.48;;;2.30;99.90;;;;;;6191565;23;20043;-83
2022/03/07 08:28:18;;;;;;;25.52;14.20;;;2.80;99.90;;;;;;6214566;23;20028;-84
2022/03/07 08:31:05;;;;;;;25.95;13.38;;;2.60;99.90;;;;;;6216521;23;20028;-83
2022/03/07 08:33:56;;;;;;;19.92;13.88;;;2.60;99.90;;;;;;6214943;23;20118;-83
2022/03/07 08:36:43;;;;;;;20.00;13.43;;;2.60;99.90;;;;;;6215144;23;20021;-82
2022/03/07 08:39:31;;;;;;;19.80;13.60;;;2.90;99.90;;;;;;6216423;23;20394;-83
2022/03/07 08:42:26;;;;;;;18.73;13.68;;;3.00;99.90;;;;;;6194727;23;20056;-82
2022/03/07 08:45:15;;;;;;;20.80;14.43;;;3.00;99.90;;;;;;6193723;23;20025;-83
2022/03/07 08:48:03;;;;;;;21.45;14.07;;;2.70;99.90;;;;;;6215848;23;20031;-84
2022/03/07 08:50:58;;;;;;;22.38;14.05;;;2.80;99.90;;;;;;6214907;23;20331;-82
2022/03/07 08:53:46;;;;;;;23.95;14.65;;;3.30;99.90;;;;;;6214453;23;20098;-82
2022/03/07 08:56:35;;;;;;;19.52;14.30;;;3.80;99.90;;;;;;6215716;23;20038;-83
2022/03/07 08:59:27;;;;;;;19.77;13.85;;;4.10;99.90;;;;;;6192527;23;20066;-85
2022/03/07 09:02:17;;;;;;;15.95;12.13;;;4.40;99.90;;;;;;6214200;23;20028;-83
2022/03/07 09:05:06;;;;;;;18.65;13.05;;;4.70;1.00;;;;;;6216158;23;20116;-83
2022/03/07 09:07:56;;;;;;;19.38;12.93;;;4.90;1.00;;;;;;6216639;23;20101;-83
2022/03/07 09:10:44;;;;;;;17.02;12.77;;;4.50;3.20;;;;;;6192470;23;20033;-82
2022/03/07 09:13:31;;;;;;;19.30;12.77;;;3.20;26.80;;;;;;6214130;23;20056;-82
2022/03/07 09:16:20;;;;;;;24.90;13.10;;;2.50;41.60;;;;;;6214835;23;20047;-83
2022/03/07 09:19:08;;;;;;;20.35;13.10;;;2.20;64.40;;;;;;6214287;23;20021;-82
2022/03/07 09:21:55;;;;;;;18.63;12.93;;;2.30;64.60;;;;;;6194568;23;20029;-82
2022/03/07 09:24:43;;;;;;;20.52;12.65;;;1.90;65.00;;;;;;6215083;23;20120;-83
2022/03/07 09:27:31;;;;;;;17.90;12.65;;;2.60;65.80;;;;;;6214677;23;20029;-83
2022/03/07 09:30:18;;;;;;;19.23;12.95;;;3.60;63.80;;;;;;6217104;23;20032;-84
2022/03/07 09:33:06;;;;;;;18.20;12.48;;;4.50;61.90;;;;;;6196297;23;20028;-82
2022/03/07 09:35:54;;;;;;;21.20;12.23;;;4.40;61.70;;;;;;6218752;23;20056;-85
2022/03/07 09:38:43;;;;;;;17.73;12.25;;;5.00;59.40;;;;;;6217738;23;20024;-84
2022/03/07 09:41:34;;;;;;;17.40;12.75;;;5.30;58.10;;;;;;6218230;23;20028;-84
2022/03/07 09:44:21;;;;;;;16.38;12.57;;;6.00;56.10;;;;;;6222078;23;20037;-83
2022/03/07 09:47:09;;;;;;;19.10;12.10;;;6.20;55.70;;;;;;6222363;23;20128;-84
2022/03/07 09:49:57;;;;;;;16.88;12.23;;;5.90;55.10;;;;;;6216478;23;20472;-86
2022/03/07 09:52:45;;;;;;;18.15;12.52;;;5.20;55.90;;;;;;6218614;23;20024;-84
2022/03/07 09:55:33;;;;;;;18.88;13.27;;;5.80;57.70;;;;;;6201596;23;20024;-83
2022/03/07 09:58:21;;;;;;;14.98;12.15;;;7.00;54.50;;;;;;6213981;23;20020;-85
2022/03/07 10:01:18;;;;;;;18.08;12.55;;;7.70;52.40;;;;;;6214230;23;20435;-85
2022/03/07 10:04:16;;;;;;;16.25;10.82;;;8.10;51.50;;;;;;6214429;23;20029;-85
2022/03/07 10:07:04;;;;;;;17.67;12.27;;;8.10;50.10;;;;;;6213840;23;20427;-84
2022/03/07 10:10:05;;;;;;;15.35;11.25;;;7.50;49.30;;;;;;6193306;23;20032;-84
2022/03/07 10:12:52;;;;;;;16.15;12.18;;;7.20;51.10;;;;;;6213223;23;20024;-84
2022/03/07 10:15:43;;;;;;;18.58;12.07;;;7.90;50.00;;;;;;6214438;23;20036;-84
2022/03/07 10:18:33;;;;;;;16.50;12.48;;;8.60;49.50;;;;;;6216095;23;20356;-84
2022/03/07 10:21:25;;;;;;;16.83;12.75;;;8.20;49.40;;;;;;6214666;23;20107;-84
2022/03/07 10:24:14;;;;;;;17.67;12.10;;;8.60;49.60;;;;;;6215830;23;20056;-84
2022/03/07 10:27:02;;;;;;;13.23;10.52;;;9.20;47.80;;;;;;6216040;23;20036;-85
2022/03/07 10:29:49;;;;;;;15.45;10.73;;;9.60;45.30;;;;;;6215944;23;20050;-85
2022/03/07 10:32:37;;;;;;;15.27;11.93;;;10.00;45.40;;;;;;6214851;23;20031;-83
2022/03/07 10:35:31;;;;;;;15.70;11.48;;;10.10;44.20;;;;;;6214268;23;20021;-85
2022/03/07 10:38:21;;;;;;;18.88;11.85;;;9.50;46.30;;;;;;6214238;23;20029;-84
2022/03/07 10:41:13;;;;;;;15.57;10.73;;;9.60;45.50;;;;;;6214707;23;20104;-83
2022/03/07 10:44:01;;;;;;;17.05;12.77;;;10.60;44.70;;;;;;6191383;23;20029;-82
2022/03/07 10:47:03;;;;;;;19.35;12.40;;;10.60;42.90;;;;;;6215111;23;20335;-87
2022/03/07 10:49:54;;;;;;;15.45;11.40;;;9.90;43.60;;;;;;6214038;23;20554;-82
2022/03/07 10:52:45;;;;;;;18.85;12.57;;;10.00;44.90;;;;;;6191556;23;20028;-82
2022/03/07 10:55:34;;;;;;;17.95;13.05;;;9.30;46.40;;;;;;6212987;23;20307;-82
2022/03/07 10:58:30;;;;;;;16.52;11.85;;;8.40;48.00;;;;;;6213206;23;20028;-87
2022/03/07 11:01:33;;;;;;;15.85;11.65;;;9.30;48.40;;;;;;6194109;23;20036;-86
2022/03/07 11:04:21;;;;;;;18.55;13.48;;;9.50;46.30;;;;;;6212628;23;20198;-85
2022/03/07 11:07:09;;;;;;;17.08;13.20;;;9.20;46.30;;;;;;6217374;23;20025;-84
2022/03/07 11:10:01;;;;;;;15.43;11.98;;;9.70;45.70;;;;;;6215146;23;20128;-85
2022/03/07 11:12:50;;;;;;;16.58;12.27;;;9.90;45.00;;;;;;6215266;23;20029;-85
2022/03/07 11:15:44;;;;;;;14.32;11.10;;;10.30;44.20;;;;;;6212937;23;20035;-84
2022/03/07 11:18:34;;;;;;;16.45;12.13;;;11.20;44.10;;;;;;6213151;23;20021;-85
2022/03/07 11:21:26;;;;;;;15.55;11.93;;;11.10;42.30;;;;;;6214574;23;20106;-85
2022/03/07 11:24:13;;;;;;;18.42;13.40;;;10.60;42.90;;;;;;6214099;23;20324;-84
2022/03/07 11:27:04;;;;;;;21.33;13.82;;;8.20;45.50;;;;;;6213599;23;20313;-84
2022/03/07 11:29:55;;;;;;;18.75;13.40;;;7.50;49.60;;;;;;6212631;23;20032;-85
2022/03/07 11:32:44;;;;;;;17.42;11.95;;;8.50;48.80;;;;;;6215539;23;20025;-85
2022/03/07 11:35:33;;;;;;;17.80;12.27;;;9.90;44.20;;;;;;6196261;23;20024;-84
2022/03/07 11:38:28;;;;;;;16.60;11.70;;;10.70;44.90;;;;;;6194012;23;20036;-84
2022/03/07 11:41:23;;;;;;;15.98;12.35;;;11.10;43.40;;;;;;6218019;23;20029;-85
2022/03/07 11:44:14;;;;;;;12.82;10.43;;;11.90;41.50;;;;;;6214575;23;20043;-86
2022/03/07 11:47:13;;;;;;;17.73;11.27;;;12.20;40.80;;;;;;6214496;23;20131;-85
2022/03/07 11:50:01;;;;;;;17.13;11.73;;;11.80;39.70;;;;;;6192553;23;20039;-84
2022/03/07 11:52:48;;;;;;;19.38;12.23;;;10.10;41.00;;;;;;6212608;23;20039;-84
2022/03/07 11:55:44;;;;;;;18.55;12.73;;;8.00;45.30;;;;;;6193073;23;20031;-84
2022/03/07 11:58:35;;;;;;;18.25;12.27;;;8.70;47.20;;;;;;6193524;23;20059;-83
2022/03/07 12:01:24;;;;;;;19.80;12.30;;;10.20;44.90;;;;;;6190854;23;20086;-84
2022/03/07 12:04:15;;;;;;;15.82;11.95;;;9.90;42.70;;;;;;6212010;23;20058;-85
2022/03/07 12:07:03;;;;;;;15.48;12.13;;;9.80;43.20;;;;;;6195166;23;20034;-85
2022/03/07 12:09:50;;;;;;;14.55;11.40;;;9.70;44.20;;;;;;6213006;23;20039;-86
2022/03/07 12:12:38;;;;;;;14.23;11.70;;;10.60;43.60;;;;;;6191158;23;20272;-85
2022/03/07 12:15:52;;;;;;;16.00;12.05;;;11.30;42.00;;;;;;6212611;23;20031;-85
2022/03/07 12:18:44;;;;;;;16.02;11.88;;;9.70;42.10;;;;;;6213287;23;20035;-83
2022/03/07 12:21:34;;;;;;;17.55;11.80;;;10.00;44.20;;;;;;6190532;23;20047;-84
2022/03/07 12:24:22;;;;;;;19.90;13.00;;;10.40;42.90;;;;;;6190170;23;20032;-85
2022/03/07 12:27:10;;;;;;;17.65;12.35;;;10.80;41.80;;;;;;6211979;23;20040;-85
2022/03/07 12:30:00;;;;;;;17.55;12.10;;;9.40;43.20;;;;;;6214367;23;20400;-85
2022/03/07 12:32:51;;;;;;;16.67;12.77;;;8.40;45.20;;;;;;6214999;23;20024;-85
2022/03/07 12:35:39;;;;;;;17.25;12.10;;;7.80;46.40;;;;;;6212520;23;20024;-83
2022/03/07 12:38:36;;;;;;;14.80;10.65;;;8.60;46.70;;;;;;6193042;23;20036;-86
2022/03/07 12:41:38;;;;;;;18.08;12.48;;;9.80;43.60;;;;;;6193931;23;20029;-85
2022/03/07 12:44:29;;;;;;;16.20;12.18;;;9.80;42.50;;;;;;6193503;23;20451;-84
2022/03/07 12:47:23;;;;;;;16.40;11.05;;;9.00;43.30;;;;;;6212940;23;20104;-83
2022/03/07 12:50:15;;;;;;;15.73;11.52;;;9.90;43.60;;;;;;6212356;23;20155;-85
2022/03/07 12:53:10;;;;;;;17.00;11.32;;;10.30;41.10;;;;;;6213140;23;20024;-84
2022/03/07 12:56:02;;;;;;;16.30;12.25;;;9.50;41.60;;;;;;6213306;23;20024;-85
2022/03/07 12:58:50;;;;;;;15.38;11.65;;;7.90;44.70;;;;;;6213386;23;20028;-85
2022/03/07 13:01:47;;;;;;;16.45;11.32;;;7.70;46.30;;;;;;6192977;23;20141;-84
2022/03/07 13:04:37;;;;;;;19.20;11.98;;;8.30;44.80;;;;;;6217719;23;20427;-84
2022/03/07 13:07:25;;;;;;;17.75;11.82;;;9.20;44.40;;;;;;6220254;23;20190;-85
2022/03/07 13:10:13;;;;;;;14.50;11.07;;;9.90;42.70;;;;;;6214111;23;20381;-86
2022/03/07 13:13:04;;;;;;;13.20;10.57;;;10.90;41.40;;;;;;6215584;23;20035;-84
2022/03/07 13:15:52;;;;;;;15.13;10.90;;;11.50;39.60;;;;;;6195666;23;20024;-86
2022/03/07 13:18:40;;;;;;;15.27;11.15;;;12.20;39.00;;;;;;6215361;23;20490;-83
2022/03/07 13:21:34;;;;;;;18.17;11.43;;;11.80;37.90;;;;;;6215643;23;20032;-84
2022/03/07 13:24:23;;;;;;;;;;;11.40;38.20;;;;;;6216852;23;20043;-84
2022/03/07 13:27:17;;;;;;;16.35;11.15;;;10.90;37.90;;;;;;6215836;23;19990;-85
2022/03/07 13:30:08;;;;;;;17.27;10.85;;;10.60;38.70;;;;;;6214463;23;20036;-84
2022/03/07 13:33:07;;;;;;;15.30;11.68;;;11.30;39.00;;;;;;6217385;23;20079;-86
2022/03/07 13:36:16;;;;;;;15.13;11.18;;;10.90;39.30;;;;;;6214694;23;20303;-84
2022/03/07 13:39:06;;;;;;;16.23;11.23;;;10.80;38.30;;;;;;6214400;23;20103;-85
2022/03/07 13:42:09;;;;;;;14.80;10.35;;;10.50;38.20;;;;;;6197010;23;20090;-84
2022/03/07 13:45:01;;;;;;;13.73;10.73;;;11.30;37.50;;;;;;6215309;23;20033;-83
2022/03/07 13:47:58;;;;;;;13.88;11.45;;;10.90;38.20;;;;;;6217445;23;20040;-84
2022/03/07 13:50:47;;;;;;;13.55;10.27;;;11.00;37.90;;;;;;6217334;23;20133;-84
2022/03/07 13:53:36;;;;;;;16.73;9.75;;;10.80;37.90;;;;;;6221781;23;20091;-84
2022/03/07 13:56:31;;;;;;;14.10;10.75;;;11.20;37.80;;;;;;6201592;23;20088;-84
2022/03/07 13:59:22;;;;;;;14.57;10.40;;;12.10;36.60;;;;;;6219678;23;20096;-85
2022/03/07 14:02:16;;;;;;;14.50;11.30;;;12.00;35.70;;;;;;6203859;23;20055;-84
2022/03/07 14:05:08;;;;;;;13.93;11.15;;;10.60;37.50;;;;;;6205874;23;20116;-84
2022/03/07 14:07:56;;;;;;;17.50;11.45;;;11.20;38.10;;;;;;6220183;23;20024;-85
2022/03/07 14:11:11;;;;;;;14.82;11.23;;;11.30;37.10;;;;;;6214924;23;20072;-83
2022/03/07 14:14:01;;;;;;;14.07;11.07;;;11.80;37.30;;;;;;6214934;23;20031;-86
2022/03/07 14:16:49;;;;;;;14.82;11.57;;;11.60;36.70;;;;;;6218661;23;20132;-83
2022/03/07 14:19:36;;;;;;;14.15;10.45;;;10.90;38.20;;;;;;6193431;23;20031;-83
2022/03/07 14:22:25;;;;;;;14.48;11.65;;;10.80;38.50;;;;;;6214051;23;20339;-83
2022/03/07 14:25:15;;;;;;;15.00;11.25;;;10.30;38.40;;;;;;6213542;23;20108;-83
2022/03/07 14:28:05;;;;;;;14.75;11.07;;;10.80;38.30;;;;;;6215547;23;20033;-82